Time;durP1;ratioP1;P1;durP2;ratioP2;P2;SDS_P1;SDS_P2;PMS_P1;PMS_P2;Temp;Humidity;BMP_temperature;BMP_pressure;BME280_temperature;BME280_humidity;BME280_pressure;Samples;Min_cycle;Max_cycle;Signal;HPM_P1;HPM_P2
2024/03/28 00:02:07;;;;;;;2.13;1.10;;;;;;;18.79;42.80;98521.97;5048504;28;20440;-66
2024/03/28 00:04:32;;;;;;;3.53;1.25;;;;;;;18.79;42.60;98527.25;5049677;28;20024;-67
2024/03/28 00:06:58;;;;;;;1.63;0.80;;;;;;;18.69;42.67;98506.41;5051455;28;20379;-66
2024/03/28 00:09:24;;;;;;;2.33;1.17;;;;;;;18.68;42.63;98496.88;5059217;28;20032;-66
2024/03/28 00:11:51;;;;;;;2.83;1.05;;;;;;;18.59;42.57;98482.97;5053803;28;20028;-68
2024/03/28 00:14:16;;;;;;;3.45;1.50;;;;;;;18.72;42.55;98508.69;5045018;28;20044;-66
2024/03/28 00:16:42;;;;;;;2.25;0.90;;;;;;;18.74;43.08;98511.13;5049197;28;20028;-67
2024/03/28 00:19:08;;;;;;;3.42;1.10;;;;;;;18.57;42.49;98471.78;5053175;28;20128;-67
2024/03/28 00:21:34;;;;;;;3.22;1.10;;;;;;;18.74;42.66;98498.78;5059834;28;20493;-67
2024/03/28 00:24:00;;;;;;;3.47;1.20;;;;;;;18.65;42.68;98487.50;5053893;28;20044;-67
2024/03/28 00:26:26;;;;;;;2.60;1.08;;;;;;;18.58;42.32;98464.69;5045988;28;20029;-66
2024/03/28 00:28:51;;;;;;;2.53;1.00;;;;;;;18.68;42.63;98484.50;5046731;28;20037;-69
2024/03/28 00:31:17;;;;;;;2.25;1.05;;;;;;;18.66;42.31;98475.16;5055595;28;20041;-68
2024/03/28 00:33:42;;;;;;;2.25;1.00;;;;;;;18.64;42.55;98463.94;5047641;28;20033;-67
2024/03/28 00:36:07;;;;;;;2.15;1.00;;;;;;;18.48;42.15;98443.88;5056611;28;20498;-69
2024/03/28 00:38:33;;;;;;;3.00;1.20;;;;;;;18.58;42.30;98457.59;5052280;28;20045;-68
2024/03/28 00:40:58;;;;;;;2.58;1.20;;;;;;;18.62;42.42;98458.84;5046180;28;20033;-69
2024/03/28 00:43:23;;;;;;;2.65;1.20;;;;;;;18.54;42.27;98450.25;5044885;28;20079;-68
2024/03/28 00:45:50;;;;;;;2.47;1.20;;;;;;;18.53;42.00;98446.75;5044359;28;20044;-68
2024/03/28 00:48:16;;;;;;;2.88;1.27;;;;;;;18.64;42.06;98453.38;5050544;28;20059;-67
2024/03/28 00:50:42;;;;;;;2.67;1.00;;;;;;;18.60;42.30;98438.94;5049414;28;20041;-67
2024/03/28 00:53:07;;;;;;;2.65;1.05;;;;;;;18.59;42.03;98440.75;5053385;28;20036;-67
2024/03/28 00:55:33;;;;;;;2.10;1.00;;;;;;;18.61;41.88;98433.50;5044441;28;20036;-68
2024/03/28 00:57:59;;;;;;;1.77;1.00;;;;;;;18.54;41.96;98421.22;5039728;28;20029;-69
2024/03/28 01:00:24;;;;;;;1.83;0.93;;;;;;;18.59;42.15;98427.56;5050491;28;20032;-69
2024/03/28 01:02:49;;;;;;;2.97;1.00;;;;;;;18.59;41.90;98424.13;5051048;28;20159;-67
2024/03/28 01:05:15;;;;;;;1.60;0.93;;;;;;;18.55;41.86;98420.22;5048336;28;20087;-68
2024/03/28 01:07:41;;;;;;;2.42;0.98;;;;;;;18.47;42.10;98400.06;5046134;28;20482;-67
2024/03/28 01:10:06;;;;;;;2.53;1.08;;;;;;;18.58;41.95;98417.19;5044119;28;20114;-68
2024/03/28 01:12:32;;;;;;;2.33;1.05;;;;;;;18.54;41.90;98410.69;5053512;28;20490;-66
2024/03/28 01:14:57;;;;;;;2.47;1.10;;;;;;;18.39;42.03;98384.31;5044140;28;20033;-66
2024/03/28 01:17:23;;;;;;;1.88;0.90;;;;;;;18.55;41.62;98410.50;5057776;28;20051;-68
2024/03/28 01:19:49;;;;;;;2.17;1.00;;;;;;;18.51;41.96;98395.22;5053535;28;20106;-68
2024/03/28 01:22:15;;;;;;;2.67;1.23;;;;;;;18.54;41.84;98392.22;5050409;28;20036;-66
2024/03/28 01:24:40;;;;;;;2.35;1.10;;;;;;;18.54;41.85;98394.84;5049420;28;20474;-67
2024/03/28 01:27:05;;;;;;;2.35;1.20;;;;;;;18.53;41.58;98401.13;5048140;28;20040;-67
2024/03/28 01:29:31;;;;;;;2.13;1.10;;;;;;;18.38;41.65;98367.69;5053681;28;20033;-67
2024/03/28 01:31:56;;;;;;;2.63;1.20;;;;;;;18.34;41.61;98362.97;5051791;28;20036;-68
2024/03/28 01:34:21;;;;;;;2.70;1.08;;;;;;;18.25;41.64;98349.91;5047852;28;20437;-67
2024/03/28 01:36:47;;;;;;;2.42;1.08;;;;;;;18.49;41.91;98387.50;5045608;28;20982;-67
2024/03/28 01:39:12;;;;;;;2.25;1.10;;;;;;;18.38;41.68;98380.06;5051690;28;20062;-66
2024/03/28 01:41:37;;;;;;;2.13;1.10;;;;;;;18.38;41.58;98380.06;5045275;28;20144;-67
2024/03/28 01:44:03;;;;;;;2.42;1.05;;;;;;;18.43;41.53;98383.78;5047358;28;20029;-66
2024/03/28 01:46:28;;;;;;;2.38;1.25;;;;;;;18.41;41.34;98388.41;5045537;28;20036;-66
2024/03/28 01:48:55;;;;;;;2.45;1.27;;;;;;;18.35;41.47;98373.34;5059660;28;20052;-68
2024/03/28 01:51:22;;;;;;;3.08;1.20;;;;;;;18.45;41.49;98384.41;5047394;28;20043;-67
2024/03/28 01:53:47;;;;;;;2.60;1.13;;;;;;;18.39;41.72;98377.25;5056176;28;20037;-66
2024/03/28 01:56:14;;;;;;;2.97;1.20;;;;;;;18.30;41.65;98357.25;5049008;28;20966;-67
2024/03/28 01:58:40;;;;;;;1.95;1.00;;;;;;;18.40;41.69;98381.50;5048621;28;20083;-68
2024/03/28 02:01:07;;;;;;;3.03;1.25;;;;;;;18.39;41.56;98377.25;5051857;28;20469;-67
2024/03/28 02:03:32;;;;;;;2.70;1.23;;;;;;;18.37;41.37;98373.16;5050546;28;20132;-69
2024/03/28 02:05:59;;;;;;;3.25;1.27;;;;;;;18.38;41.62;98378.25;5056873;28;20116;-67
2024/03/28 02:08:27;;;;;;;3.55;1.27;;;;;;;18.38;41.54;98370.34;5055304;28;20040;-67
2024/03/28 02:10:53;;;;;;;2.35;1.15;;;;;;;18.39;41.48;98371.97;5043597;28;20051;-67
2024/03/28 02:13:18;;;;;;;2.65;1.27;;;;;;;18.23;41.32;98340.53;5051770;28;20765;-67
2024/03/28 02:15:43;;;;;;;2.33;1.00;;;;;;;18.30;41.37;98349.34;5056047;28;20032;-68
2024/03/28 02:18:09;;;;;;;2.88;1.30;;;;;;;18.35;41.24;98368.06;5056701;28;20149;-67
2024/03/28 02:20:34;;;;;;;2.67;1.10;;;;;;;18.35;41.52;98360.16;5044972;28;20048;-67
2024/03/28 02:22:59;;;;;;;2.05;1.10;;;;;;;18.33;41.57;98345.53;5047495;28;20051;-67
2024/03/28 02:25:26;;;;;;;1.98;1.08;;;;;;;18.38;41.26;98362.41;5041738;28;20037;-68
2024/03/28 02:27:51;;;;;;;2.72;1.00;;;;;;;18.33;41.66;98351.63;5048731;28;20160;-68
2024/03/28 02:30:17;;;;;;;2.95;1.20;;;;;;;18.25;41.32;98338.56;5054841;28;20040;-68
2024/03/28 02:32:42;;;;;;;2.63;1.20;;;;;;;18.18;41.20;98325.28;5052271;28;20033;-68
2024/03/28 02:35:08;;;;;;;2.45;1.05;;;;;;;18.21;41.44;98334.66;5046650;28;21134;-68
2024/03/28 02:37:33;;;;;;;2.35;1.10;;;;;;;18.31;41.32;98343.09;5059212;28;20032;-67
2024/03/28 02:40:01;;;;;;;2.55;1.20;;;;;;;18.23;41.18;98324.72;5058767;28;20413;-67
2024/03/28 02:42:26;;;;;;;3.17;1.35;;;;;;;18.30;41.00;98329.06;5052515;28;20182;-66
2024/03/28 02:44:52;;;;;;;2.75;1.20;;;;;;;18.21;41.33;98322.28;5049544;28;20033;-66
2024/03/28 02:47:17;;;;;;;2.40;1.10;;;;;;;18.19;41.18;98316.38;5047569;28;20033;-67
2024/03/28 02:49:42;;;;;;;2.83;1.10;;;;;;;18.30;41.27;98334.34;5058303;28;20048;-67
2024/03/28 02:52:07;;;;;;;2.13;1.00;;;;;;;18.20;41.28;98314.53;5046530;28;20458;-68
2024/03/28 02:54:33;;;;;;;2.83;1.23;;;;;;;18.30;41.17;98323.00;5055826;28;20080;-66
2024/03/28 02:57:03;;;;;;;2.50;1.23;;;;;;;18.26;41.45;98308.53;5041268;28;20401;-67
2024/03/28 02:59:29;;;;;;;2.10;1.00;;;;;;;18.29;41.00;98297.63;5059084;28;20028;-67
2024/03/28 03:01:54;;;;;;;2.47;1.10;;;;;;;18.25;40.94;98278.72;5051447;28;20527;-69
2024/03/28 03:04:20;;;;;;;1.75;1.00;;;;;;;18.17;41.48;98270.13;5059633;28;20037;-67
2024/03/28 03:06:45;;;;;;;2.38;1.00;;;;;;;18.16;41.33;98279.84;5048552;28;20056;-69
2024/03/28 03:09:10;;;;;;;2.72;1.00;;;;;;;18.21;40.85;98285.38;5057765;28;20044;-67
2024/03/28 03:11:36;;;;;;;2.33;1.10;;;;;;;18.15;40.90;98269.47;5056051;28;20949;-68
2024/03/28 03:14:01;;;;;;;2.50;1.30;;;;;;;18.06;41.11;98259.06;5058215;28;20032;-67
2024/03/28 03:16:26;;;;;;;2.15;1.08;;;;;;;18.13;41.00;98261.75;5054530;28;20032;-67
2024/03/28 03:18:52;;;;;;;2.88;1.20;;;;;;;18.22;40.94;98257.19;5058365;28;20036;-66
2024/03/28 03:21:17;;;;;;;1.88;0.98;;;;;;;18.12;41.22;98242.50;5058238;28;20560;-66
2024/03/28 03:23:49;;;;;;;2.22;1.00;;;;;;;18.23;41.41;98246.47;5057661;28;20549;-69
2024/03/28 03:26:24;;;;;;;2.30;1.02;;;;;;;18.14;41.41;98223.88;5056573;28;20440;-66
2024/03/28 03:34:35;;;;;;;2.67;1.08;;;;;;;18.07;41.29;98218.53;5048452;28;20052;-67
2024/03/28 03:37:20;;;;;;;3.55;1.05;;;;;;;18.20;41.24;98238.94;5047955;28;20036;-67
2024/03/28 03:39:45;;;;;;;;;;;;;;;18.19;41.04;98239.13;5055911;28;20037;-68
2024/03/28 03:42:11;;;;;;;1.52;0.80;;;;;;;18.19;41.09;98239.13;5052306;28;20415;-67
2024/03/28 03:44:37;;;;;;;2.10;1.00;;;;;;;18.05;41.42;98215.25;5047058;28;20075;-68
2024/03/28 03:47:02;;;;;;;1.38;0.88;;;;;;;18.16;41.28;98226.31;5056871;28;20074;-67
2024/03/28 03:49:27;;;;;;;2.00;0.88;;;;;;;18.01;41.44;98198.19;5054927;28;20048;-69
2024/03/28 03:51:53;;;;;;;1.80;0.90;;;;;;;18.02;41.24;98197.19;5052111;28;20032;-65
2024/03/28 03:54:18;;;;;;;2.08;1.00;;;;;;;17.99;41.08;98196.75;5056784;28;20025;-68
2024/03/28 03:56:43;;;;;;;1.77;1.00;;;;;;;18.14;41.14;98213.31;5049828;28;20036;-67
2024/03/28 03:59:09;;;;;;;2.60;1.13;;;;;;;18.07;40.93;98208.00;5049479;28;20035;-68
2024/03/28 04:01:34;;;;;;;2.05;1.00;;;;;;;17.99;40.90;98197.59;5060718;28;20094;-68
2024/03/28 04:03:59;;;;;;;2.38;0.93;;;;;;;18.01;41.02;98200.00;5045159;28;20386;-70
2024/03/28 04:06:24;;;;;;;2.20;0.90;;;;;;;18.02;40.83;98199.81;5047862;28;20037;-68
2024/03/28 04:08:50;;;;;;;2.35;0.88;;;;;;;18.15;40.85;98217.59;5055641;28;20104;-67
2024/03/28 04:11:18;;;;;;;1.88;0.90;;;;;;;18.17;40.95;98214.78;5054131;28;20035;-68
2024/03/28 04:13:43;;;;;;;2.42;1.10;;;;;;;18.15;41.29;98206.22;5057117;28;20036;-68
2024/03/28 04:16:08;;;;;;;1.85;0.90;;;;;;;18.12;41.05;98202.97;5054855;28;20028;-68
2024/03/28 04:18:34;;;;;;;1.50;0.80;;;;;;;18.00;41.09;98180.75;5059517;28;20072;-66
2024/03/28 04:20:59;;;;;;;2.35;1.08;;;;;;;18.11;40.88;98198.69;5052516;28;20528;-66
2024/03/28 04:23:25;;;;;;;1.73;0.80;;;;;;;18.15;40.99;98193.03;5047423;28;20525;-66
2024/03/28 04:25:57;;;;;;;2.00;0.90;;;;;;;17.94;40.79;98152.50;5049509;28;20048;-66
2024/03/28 04:28:23;;;;;;;2.08;1.10;;;;;;;18.13;40.75;98201.13;5053562;28;20086;-67
2024/03/28 04:30:49;;;;;;;2.08;0.93;;;;;;;18.00;40.94;98166.75;5056071;28;20537;-69
2024/03/28 04:33:16;;;;;;;2.25;0.90;;;;;;;17.88;40.83;98153.25;5043113;28;20031;-68
2024/03/28 04:35:43;;;;;;;2.22;0.90;;;;;;;18.03;40.75;98183.00;5046130;28;20025;-68
2024/03/28 04:38:09;;;;;;;1.83;0.90;;;;;;;18.11;40.88;98192.63;5042110;28;20041;-67
2024/03/28 04:40:34;;;;;;;2.25;1.15;;;;;;;18.10;40.90;98183.91;5044676;28;20078;-66
2024/03/28 04:42:59;;;;;;;2.10;1.00;;;;;;;18.06;40.66;98177.38;5051145;28;20520;-67
2024/03/28 04:45:24;;;;;;;2.67;1.10;;;;;;;18.09;40.95;98176.19;5050143;28;20293;-66
2024/03/28 04:47:52;;;;;;;2.50;0.85;;;;;;;18.08;40.67;98171.91;5052145;28;20478;-67
2024/03/28 04:50:18;;;;;;;1.52;0.80;;;;;;;17.91;40.85;98148.44;5058184;28;20029;-68
2024/03/28 04:52:44;;;;;;;2.13;1.00;;;;;;;17.84;40.58;98142.25;5054439;28;20036;-68
2024/03/28 04:55:10;;;;;;;2.28;0.88;;;;;;;18.03;40.60;98163.75;5053773;28;20462;-70
2024/03/28 04:57:36;;;;;;;2.70;1.15;;;;;;;18.03;40.68;98169.84;5054192;28;20059;-67
2024/03/28 05:00:06;;;;;;;4.25;1.17;;;;;;;17.92;40.66;98149.25;5059366;28;20410;-67
2024/03/28 05:02:31;;;;;;;1.35;0.70;;;;;;;17.92;40.60;98144.00;5054926;28;20074;-68
2024/03/28 05:04:57;;;;;;;1.73;0.93;;;;;;;18.03;40.90;98158.47;5045728;28;20048;-66
2024/03/28 05:07:23;;;;;;;2.65;0.90;;;;;;;18.01;40.88;98152.56;5048047;28;20116;-68
2024/03/28 05:09:49;;;;;;;1.75;0.80;;;;;;;18.05;40.72;98167.81;5044826;28;20024;-66
2024/03/28 05:12:14;;;;;;;1.98;0.98;;;;;;;18.05;40.91;98165.19;5051667;28;20078;-68
2024/03/28 05:14:40;;;;;;;1.98;0.90;;;;;;;17.92;40.63;98150.06;5042349;28;20028;-69
2024/03/28 05:17:06;;;;;;;2.17;0.90;;;;;;;18.02;40.59;98185.84;5044117;28;20349;-66
2024/03/28 05:19:31;;;;;;;2.38;0.90;;;;;;;17.91;40.77;98172.16;5051008;28;20037;-67
2024/03/28 05:21:57;;;;;;;2.15;1.00;;;;;;;18.03;40.72;98198.81;5043580;28;20037;-68
2024/03/28 05:24:22;;;;;;;3.72;1.08;;;;;;;18.03;40.47;98200.66;5045685;28;20157;-69
2024/03/28 05:26:48;;;;;;;2.03;0.98;;;;;;;17.86;40.42;98169.22;5041529;28;20063;-68
2024/03/28 05:29:13;;;;;;;1.42;0.80;;;;;;;17.82;40.76;98170.63;5048088;28;20127;-67
2024/03/28 05:31:38;;;;;;;2.45;0.90;;;;;;;17.97;40.70;98194.28;5044551;28;20036;-67
2024/03/28 05:34:04;;;;;;;3.72;0.90;;;;;;;17.99;40.81;98197.59;5052225;28;20029;-67
2024/03/28 05:36:30;;;;;;;2.55;0.80;;;;;;;17.96;40.69;98192.69;5047894;28;20086;-69
2024/03/28 05:38:55;;;;;;;2.50;1.00;;;;;;;17.85;40.56;98179.94;5039571;28;20071;-67
2024/03/28 05:41:20;;;;;;;1.92;0.90;;;;;;;17.90;40.39;98183.69;5044795;28;20043;-67
2024/03/28 05:43:46;;;;;;;1.98;0.90;;;;;;;17.93;40.65;98195.69;5056825;28;20064;-67
2024/03/28 05:46:11;;;;;;;3.03;1.00;;;;;;;17.95;40.50;98196.31;5044742;28;20064;-67
2024/03/28 05:48:36;;;;;;;4.32;1.17;;;;;;;17.97;40.76;98199.56;5042506;28;20049;-68
2024/03/28 05:51:02;;;;;;;3.55;1.00;;;;;;;17.98;40.60;98197.78;5049279;28;20488;-67
2024/03/28 05:53:27;;;;;;;4.53;1.10;;;;;;;17.89;40.27;98189.97;5049938;28;20036;-67
2024/03/28 05:55:53;;;;;;;2.20;0.90;;;;;;;17.90;40.37;98191.59;5050709;28;20036;-67
2024/03/28 05:58:18;;;;;;;1.67;0.80;;;;;;;17.95;40.80;98194.47;5045909;28;20280;-66
2024/03/28 06:00:43;;;;;;;2.03;0.80;;;;;;;17.98;40.47;98203.84;5045853;28;20058;-67
2024/03/28 06:03:09;;;;;;;1.95;1.00;;;;;;;17.86;40.52;98182.41;5047392;28;20051;-67
2024/03/28 06:05:34;;;;;;;2.83;1.00;;;;;;;17.87;40.62;98185.88;5046434;28;20045;-66
2024/03/28 06:07:59;;;;;;;2.00;0.90;;;;;;;17.86;40.64;98185.03;5044293;28;20021;-68
2024/03/28 06:10:25;;;;;;;1.73;0.80;;;;;;;17.94;40.79;98194.66;5050400;28;20390;-68
2024/03/28 06:12:50;;;;;;;2.30;1.00;;;;;;;17.89;40.95;98176.78;5050109;28;20029;-67
2024/03/28 06:15:16;;;;;;;1.52;0.60;;;;;;;17.77;40.81;98158.00;5042264;28;20115;-68
2024/03/28 06:17:41;;;;;;;2.35;0.82;;;;;;;17.82;40.97;98152.19;5047007;28;20036;-68
2024/03/28 06:20:08;;;;;;;2.25;0.85;;;;;;;17.95;41.01;98173.41;5051780;28;20044;-67
2024/03/28 06:22:33;;;;;;;2.38;0.80;;;;;;;17.99;41.31;98176.50;5054621;28;20129;-66
2024/03/28 06:24:58;;;;;;;1.75;0.80;;;;;;;18.03;41.34;98169.84;5046503;28;20059;-67
2024/03/28 06:27:23;;;;;;;1.60;0.80;;;;;;;18.04;41.35;98179.38;5049981;28;20028;-67
2024/03/28 06:29:52;;;;;;;2.47;0.90;;;;;;;18.06;41.53;98176.56;5046112;28;20033;-67
2024/03/28 06:32:24;;;;;;;1.80;0.80;;;;;;;17.92;41.33;98144.00;5048504;28;20039;-67
2024/03/28 06:34:57;;;;;;;1.73;0.93;;;;;;;18.08;41.31;98166.63;5048738;28;20400;-68
2024/03/28 06:37:23;;;;;;;2.10;0.80;;;;;;;18.03;41.56;98147.94;5055956;28;20063;-67
2024/03/28 06:39:49;;;;;;;2.13;0.82;;;;;;;18.00;41.23;98143.84;5047878;28;20490;-68
2024/03/28 06:42:15;;;;;;;2.33;0.90;;;;;;;18.02;41.36;98149.75;5056823;28;20041;-66
2024/03/28 06:44:44;;;;;;;1.65;0.82;;;;;;;18.21;41.58;98179.13;5056896;28;20383;-66
2024/03/28 06:47:10;;;;;;;1.33;0.70;;;;;;;18.08;41.28;98153.44;5054699;28;20046;-68
2024/03/28 06:49:35;;;;;;;1.45;0.63;;;;;;;18.20;41.50;98175.66;5056968;28;20048;-67
2024/03/28 06:52:00;;;;;;;1.27;0.70;;;;;;;18.25;41.17;98180.38;5047744;28;20490;-68
2024/03/28 06:54:26;;;;;;;1.63;0.60;;;;;;;18.18;41.21;98166.31;5057755;28;20033;-66
2024/03/28 06:56:51;;;;;;;1.95;0.88;;;;;;;18.24;40.99;98170.81;5050903;28;20058;-67
2024/03/28 06:59:16;;;;;;;1.50;0.65;;;;;;;18.16;41.09;98163.88;5052870;28;20040;-66
2024/03/28 07:01:42;;;;;;;2.15;0.85;;;;;;;18.19;41.11;98160.84;5048302;28;20055;-67
2024/03/28 07:04:08;;;;;;;1.25;0.65;;;;;;;18.20;40.98;98170.41;5052472;28;20028;-67
2024/03/28 07:06:33;;;;;;;2.25;0.90;;;;;;;18.37;41.17;98196.50;5058133;28;20132;-67
2024/03/28 07:08:59;;;;;;;1.45;0.70;;;;;;;18.23;41.00;98177.09;5049327;28;20101;-68
2024/03/28 07:11:25;;;;;;;1.88;0.77;;;;;;;18.23;41.26;98182.38;5050639;28;20032;-67
2024/03/28 07:13:51;;;;;;;1.48;0.63;;;;;;;18.20;41.17;98173.03;5043784;28;20037;-68
2024/03/28 07:16:16;;;;;;;2.13;0.80;;;;;;;18.34;41.41;98192.44;5057380;28;20039;-68
2024/03/28 07:18:41;;;;;;;1.58;0.80;;;;;;;18.28;41.37;98195.81;5051379;28;20942;-69
2024/03/28 07:21:07;;;;;;;1.52;0.60;;;;;;;18.30;41.17;98204.34;5054351;28;20051;-67
2024/03/28 07:23:32;;;;;;;1.83;0.82;;;;;;;18.14;41.11;98176.41;5056988;28;20063;-69
2024/03/28 07:25:58;;;;;;;1.60;0.70;;;;;;;18.39;41.43;98224.31;5058942;28;20473;-68
2024/03/28 07:28:23;;;;;;;1.20;0.70;;;;;;;18.33;41.21;98203.97;5054172;28;20063;-68
2024/03/28 07:30:48;;;;;;;2.28;0.80;;;;;;;18.39;41.07;98211.13;5052486;28;20044;-68
2024/03/28 07:33:13;;;;;;;2.28;1.00;;;;;;;18.29;41.30;98200.91;5045379;28;20060;-68
2024/03/28 07:35:39;;;;;;;2.78;0.70;;;;;;;18.37;41.38;98210.47;5052260;28;20052;-67
2024/03/28 07:38:04;;;;;;;2.33;0.80;;;;;;;18.32;41.45;98210.22;5045243;28;20041;-66
2024/03/28 07:40:29;;;;;;;2.63;0.85;;;;;;;18.37;41.81;98218.38;5058262;28;20043;-67
2024/03/28 07:42:55;;;;;;;1.88;0.70;;;;;;;18.41;41.88;98227.56;5049567;28;20036;-69
2024/03/28 07:45:20;;;;;;;1.40;0.70;;;;;;;18.38;42.63;98214.75;5051569;28;20063;-68
2024/03/28 07:47:45;;;;;;;2.28;0.80;;;;;;;18.38;42.08;98222.66;5054392;28;20033;-67
2024/03/28 07:50:11;;;;;;;3.13;0.90;;;;;;;18.36;42.35;98214.13;5053461;28;20090;-67
2024/03/28 07:52:37;;;;;;;2.60;0.80;;;;;;;18.38;42.52;98221.84;5057835;28;20060;-67
2024/03/28 07:55:03;;;;;;;2.25;0.75;;;;;;;18.29;42.50;98205.34;5057163;28;20037;-65
2024/03/28 07:57:28;;;;;;;2.42;0.80;;;;;;;18.27;42.74;98197.63;5058819;28;20042;-67
2024/03/28 07:59:53;;;;;;;2.35;0.70;;;;;;;18.27;42.73;98202.88;5056036;28;20133;-67
2024/03/28 08:02:19;;;;;;;2.65;0.80;;;;;;;18.33;42.74;98203.16;5044319;28;20028;-67
2024/03/28 08:04:44;;;;;;;2.95;0.80;;;;;;;18.40;42.80;98219.84;5050953;28;20107;-67
2024/03/28 08:07:10;;;;;;;4.55;0.70;;;;;;;18.38;42.77;98219.22;5054925;28;20519;-68
2024/03/28 08:09:35;;;;;;;5.57;1.10;;;;;;;18.43;42.95;98224.75;5049280;28;20032;-67
2024/03/28 08:12:07;;;;;;;1.92;0.80;;;;;;;18.19;43.27;98194.31;5048855;28;20025;-69
2024/03/28 08:14:33;;;;;;;2.13;0.70;;;;;;;18.34;42.89;98223.22;5055145;28;20497;-68
2024/03/28 08:17:00;;;;;;;2.97;0.85;;;;;;;18.32;43.19;98210.22;5049295;28;20075;-69
2024/03/28 08:19:26;;;;;;;2.05;1.05;;;;;;;18.25;42.95;98206.75;5052161;28;20063;-69
2024/03/28 08:21:51;;;;;;;2.38;0.90;;;;;;;18.40;43.30;98236.47;5047075;28;20114;-68
2024/03/28 08:24:19;;;;;;;1.67;0.70;;;;;;;18.38;43.07;98225.31;5046574;28;20056;-68
2024/03/28 08:26:44;;;;;;;1.48;0.77;;;;;;;18.16;43.13;98205.22;5046845;28;20028;-68
2024/03/28 08:29:10;;;;;;;3.47;0.80;;;;;;;18.38;43.31;98238.47;5043002;28;20047;-68
2024/03/28 08:31:36;;;;;;;2.30;0.90;;;;;;;18.36;43.12;98227.31;5056505;28;20040;-68
2024/03/28 08:34:02;;;;;;;2.70;0.73;;;;;;;18.30;43.06;98233.34;5047761;28;20032;-68
2024/03/28 08:36:27;;;;;;;1.98;0.70;;;;;;;18.27;43.17;98221.34;5049564;28;20413;-68
2024/03/28 08:38:54;;;;;;;1.48;0.60;;;;;;;18.30;43.23;98236.78;5046828;28;20040;-68
2024/03/28 08:41:20;;;;;;;2.40;0.80;;;;;;;18.23;43.14;98224.53;5048828;28;20039;-70
2024/03/28 08:43:48;;;;;;;1.73;0.80;;;;;;;18.19;43.27;98220.66;5055280;28;20170;-67
2024/03/28 08:46:13;;;;;;;2.40;0.70;;;;;;;18.15;43.31;98206.22;5044128;28;20039;-66
2024/03/28 08:48:43;;;;;;;1.90;0.90;;;;;;;18.34;43.37;98249.59;5045787;28;20052;-68
2024/03/28 08:51:08;;;;;;;2.15;0.60;;;;;;;18.40;43.32;98265.47;5045368;28;20052;-67
2024/03/28 08:53:34;;;;;;;2.53;0.85;;;;;;;18.35;43.55;98259.97;5047266;28;20025;-69
2024/03/28 08:56:00;;;;;;;1.58;0.70;;;;;;;18.28;43.57;98246.72;5038160;28;20151;-69
2024/03/28 08:58:26;;;;;;;2.33;0.93;;;;;;;18.41;43.55;98264.47;5046229;28;20243;-67
2024/03/28 09:00:51;;;;;;;4.38;0.95;;;;;;;18.36;43.66;98261.59;5041769;28;20493;-68
2024/03/28 09:03:17;;;;;;;5.97;0.80;;;;;;;18.41;43.88;98275.03;5049586;28;20169;-68
2024/03/28 09:05:42;;;;;;;3.00;0.85;;;;;;;18.35;43.79;98273.13;5045439;28;21005;-69
2024/03/28 09:08:10;;;;;;;3.13;0.75;;;;;;;18.43;43.88;98282.75;5049545;28;20033;-68
2024/03/28 09:10:35;;;;;;;3.55;0.70;;;;;;;18.25;43.75;98255.00;5044102;28;20059;-67
2024/03/28 09:13:01;;;;;;;4.25;0.75;;;;;;;18.41;43.56;98279.50;5040349;28;20032;-68
2024/03/28 09:15:26;;;;;;;2.38;0.75;;;;;;;18.37;43.53;98279.03;5046985;28;20052;-68
2024/03/28 09:17:52;;;;;;;4.20;0.90;;;;;;;18.31;43.57;98274.53;5049074;28;20028;-68
2024/03/28 09:20:19;;;;;;;1.85;0.80;;;;;;;18.30;43.54;98278.16;5052632;28;20041;-65
2024/03/28 09:22:44;;;;;;;2.15;0.80;;;;;;;18.46;43.82;98301.66;5043733;28;20044;-65
2024/03/28 09:25:10;;;;;;;2.05;0.68;;;;;;;18.33;43.76;98287.53;5043407;28;20033;-66
2024/03/28 09:27:35;;;;;;;2.10;0.57;;;;;;;18.34;43.54;98295.25;5049661;28;20423;-66
2024/03/28 09:30:01;;;;;;;1.88;0.80;;;;;;;18.28;43.72;98294.16;5050387;28;20024;-66
2024/03/28 09:32:27;;;;;;;2.25;0.70;;;;;;;18.48;43.63;98331.31;5044882;28;20073;-68
2024/03/28 09:34:52;;;;;;;2.70;0.60;;;;;;;18.38;43.46;98320.22;5046071;28;20029;-65
2024/03/28 09:37:18;;;;;;;3.43;0.60;;;;;;;18.26;43.87;98309.38;5037630;28;20064;-65
2024/03/28 09:39:48;;;;;;;2.33;0.73;;;;;;;18.37;44.07;98326.50;5037155;28;20270;-67
2024/03/28 09:42:19;;;;;;;3.28;0.63;;;;;;;18.36;43.62;98339.88;5043759;28;20032;-69
2024/03/28 09:44:46;;;;;;;2.60;0.63;;;;;;;18.40;43.64;98357.78;5047962;28;20064;-67
2024/03/28 09:47:14;;;;;;;2.15;0.60;;;;;;;18.43;43.89;98360.03;5045494;28;20461;-67
2024/03/28 09:49:40;;;;;;;2.15;0.90;;;;;;;18.40;43.64;98349.84;5044598;28;20084;-68
2024/03/28 09:52:07;;;;;;;1.92;0.50;;;;;;;18.51;43.67;98376.75;5048908;28;20067;-67
2024/03/28 09:54:35;;;;;;;2.15;0.60;;;;;;;18.31;43.84;98351.00;5046812;28;20033;-67
2024/03/28 09:57:00;;;;;;;1.98;0.50;;;;;;;18.41;43.84;98384.97;5041325;28;20025;-67
2024/03/28 09:59:27;;;;;;;1.58;0.52;;;;;;;18.44;43.79;98390.69;5046722;28;20032;-67
2024/03/28 10:01:57;;;;;;;7.15;0.85;;;;;;;18.47;43.86;98397.41;5045241;28;20044;-67
2024/03/28 10:04:23;;;;;;;4.05;0.80;;;;;;;18.49;43.61;98403.31;5046340;28;20028;-67
2024/03/28 10:06:57;;;;;;;1.55;0.65;;;;;;;18.46;43.85;98403.69;5044707;28;20029;-68
2024/03/28 10:09:23;;;;;;;1.40;0.60;;;;;;;18.39;43.92;98398.34;5048871;28;20024;-67
2024/03/28 10:11:51;;;;;;;2.38;0.65;;;;;;;18.40;43.83;98407.06;5048060;28;20454;-67
2024/03/28 10:14:19;;;;;;;4.00;0.70;;;;;;;18.49;43.88;98425.22;5054634;28;20131;-66
2024/03/28 10:16:54;;;;;;;1.83;0.47;;;;;;;18.50;43.83;98426.06;5046458;28;20040;-68
2024/03/28 10:19:21;;;;;;;0.90;0.45;;;;;;;18.39;43.58;98429.16;5049144;28;20036;-67
2024/03/28 10:21:47;;;;;;;3.33;0.68;;;;;;;18.49;43.84;98454.25;5046597;28;20048;-68
2024/03/28 10:24:19;;;;;;;3.95;0.60;;;;;;;18.41;43.69;98440.34;5047493;28;20081;-67
2024/03/28 10:26:45;;;;;;;1.55;0.50;;;;;;;18.39;43.97;98445.81;5047563;28;20037;-68
2024/03/28 10:29:12;;;;;;;1.35;0.52;;;;;;;18.13;43.73;98393.56;5048749;28;20032;-67
2024/03/28 10:31:39;;;;;;;1.85;0.60;;;;;;;18.48;44.14;98434.16;5048433;28;20048;-66
2024/03/28 10:34:12;;;;;;;1.30;0.45;;;;;;;18.37;44.00;98439.88;5043879;28;20032;-67
2024/03/28 10:36:37;;;;;;;3.60;0.60;;;;;;;18.36;44.04;98440.06;5050587;28;20085;-68
2024/03/28 10:39:06;;;;;;;2.58;0.93;;;;;;;18.49;44.12;98462.16;5049300;28;20033;-68
2024/03/28 10:41:33;;;;;;;1.15;0.50;;;;;;;18.30;44.05;98433.72;5044760;28;20510;-67
2024/03/28 10:44:00;;;;;;;3.72;1.27;;;;;;;18.45;44.24;98447.72;5055383;28;20035;-68
2024/03/28 10:46:27;;;;;;;2.33;0.65;;;;;;;18.44;44.30;98448.72;5050791;28;20052;-64
2024/03/28 10:48:54;;;;;;;4.25;0.80;;;;;;;18.55;44.32;98481.72;5047013;28;20052;-65
2024/03/28 10:51:31;;;;;;;1.90;0.50;;;;;;;18.41;44.38;98458.81;5052718;28;20044;-63
2024/03/28 10:54:04;;;;;;;5.30;0.75;;;;;;;18.60;44.37;98497.78;5047080;28;20089;-63
2024/03/28 10:56:32;;;;;;;1.92;0.70;;;;;;;18.40;44.15;98463.25;5044079;28;20117;-64
2024/03/28 10:59:02;;;;;;;2.70;0.70;;;;;;;18.59;44.37;98500.63;5051384;28;20045;-64
2024/03/28 11:01:31;;;;;;;4.70;0.80;;;;;;;18.53;44.04;98488.16;5048041;28;20055;-64
2024/03/28 11:03:59;;;;;;;2.95;0.70;;;;;;;18.52;44.18;98492.63;5046794;28;20258;-64
2024/03/28 11:06:25;;;;;;;2.40;0.57;;;;;;;18.47;44.22;98503.72;5043279;28;20139;-66
2024/03/28 11:08:53;;;;;;;2.80;0.50;;;;;;;18.56;44.45;98504.44;5046663;28;20031;-64
2024/03/28 11:11:18;;;;;;;1.15;0.50;;;;;;;18.46;44.23;98502.06;5046163;28;20037;-69
2024/03/28 11:13:44;;;;;;;2.88;0.63;;;;;;;18.56;44.22;98516.81;5041959;28;20033;-68
2024/03/28 11:16:09;;;;;;;4.47;0.90;;;;;;;18.39;43.99;98497.72;5047507;28;20037;-68
2024/03/28 11:18:35;;;;;;;1.98;0.60;;;;;;;18.56;44.26;98520.25;5040790;28;20128;-66
2024/03/28 11:21:03;;;;;;;2.17;0.73;;;;;;;18.46;44.22;98507.34;5041335;28;20067;-71
2024/03/28 11:23:31;;;;;;;1.00;0.50;;;;;;;18.59;44.00;98524.34;5046922;28;20024;-70
2024/03/28 11:26:09;;;;;;;2.25;0.65;;;;;;;18.60;43.98;98529.44;5042161;28;20448;-69
2024/03/28 11:28:43;;;;;;;1.58;0.60;;;;;;;18.51;44.01;98521.81;5051360;28;20087;-70
2024/03/28 11:31:13;;;;;;;1.35;0.50;;;;;;;18.43;44.03;98501.63;5049259;28;20097;-69
2024/03/28 11:33:38;;;;;;;1.52;0.60;;;;;;;18.49;43.99;98529.91;5051148;28;20039;-70
2024/03/28 11:36:05;;;;;;;1.67;0.50;;;;;;;18.60;44.10;98534.72;5057994;28;20041;-69